Time;durP1;ratioP1;P1;durP2;ratioP2;P2;SDS_P1;SDS_P2;PMS_P1;PMS_P2;Temp;Humidity;BMP_temperature;BMP_pressure;BME280_temperature;BME280_humidity;BME280_pressure;Samples;Min_cycle;Max_cycle;Signal;HPM_P1;HPM_P2
2022/06/27 00:00:34;;;;;;;9.35;4.72;;;18.00;74.00;;;;;;5021656;28;20037;-75
2022/06/27 00:02:59;;;;;;;6.82;4.10;;;18.00;73.90;;;;;;5013011;28;20030;-74
2022/06/27 00:05:25;;;;;;;8.25;4.43;;;18.00;73.60;;;;;;5010743;28;20037;-74
2022/06/27 00:07:51;;;;;;;7.35;4.13;;;18.00;73.50;;;;;;5021269;28;20053;-75
2022/06/27 00:10:16;;;;;;;8.10;4.30;;;18.10;73.40;;;;;;5019988;28;20076;-75
2022/06/27 00:12:42;;;;;;;9.40;4.13;;;18.10;73.40;;;;;;5017058;28;20377;-75
2022/06/27 00:15:09;;;;;;;7.80;4.47;;;18.10;73.40;;;;;;5018694;28;20377;-75
2022/06/27 00:17:35;;;;;;;9.63;4.57;;;18.10;73.50;;;;;;5017206;28;20034;-75
2022/06/27 00:20:01;;;;;;;7.50;4.18;;;18.00;73.60;;;;;;5019151;28;20042;-76
2022/06/27 00:22:27;;;;;;;9.13;4.47;;;17.90;73.80;;;;;;5010966;28;20330;-75
2022/06/27 00:24:53;;;;;;;8.38;4.32;;;17.90;74.00;;;;;;5020966;28;20044;-75
2022/06/27 00:27:19;;;;;;;9.27;4.78;;;17.90;74.20;;;;;;5016053;28;20449;-75
2022/06/27 00:29:44;;;;;;;8.13;4.03;;;17.80;74.30;;;;;;5004301;28;20860;-76
2022/06/27 00:32:10;;;;;;;8.00;3.65;;;17.80;74.50;;;;;;5017647;28;20124;-75
2022/06/27 00:34:37;;;;;;;6.57;3.85;;;17.80;74.60;;;;;;5012377;28;20380;-76
2022/06/27 00:37:03;;;;;;;7.45;4.50;;;17.70;74.70;;;;;;5015081;28;20045;-75
2022/06/27 00:39:28;;;;;;;9.80;4.25;;;17.70;74.80;;;;;;5019323;28;20671;-76
2022/06/27 00:41:54;;;;;;;7.95;4.38;;;17.60;74.70;;;;;;5013196;28;20037;-75
2022/06/27 00:44:49;;;;;;;9.27;4.20;;;17.60;74.40;;;;;;5017486;28;20032;-77
2022/06/27 00:47:15;;;;;;;8.38;4.60;;;17.60;74.40;;;;;;4990607;28;20030;-76
2022/06/27 00:49:41;;;;;;;8.15;4.43;;;17.60;74.60;;;;;;5023174;28;20547;-76
2022/06/27 00:52:11;;;;;;;6.72;4.45;;;17.50;74.70;;;;;;5011753;28;20033;-75
2022/06/27 00:54:40;;;;;;;14.43;4.43;;;17.40;74.90;;;;;;5021000;28;20052;-75
2022/06/27 00:57:06;;;;;;;7.60;4.40;;;17.40;75.20;;;;;;5014029;28;20141;-75
2022/06/27 00:59:32;;;;;;;7.60;4.18;;;17.40;75.40;;;;;;5015820;28;20673;-76
2022/06/27 01:01:58;;;;;;;6.97;3.90;;;17.30;75.70;;;;;;5019527;28;20129;-76
2022/06/27 01:04:24;;;;;;;8.18;4.72;;;17.30;75.80;;;;;;5019955;28;20128;-75
2022/06/27 01:06:54;;;;;;;6.63;4.00;;;17.30;75.80;;;;;;5015991;28;20493;-76
2022/06/27 01:09:21;;;;;;;8.90;4.00;;;17.30;75.70;;;;;;5012513;28;20065;-75
2022/06/27 01:11:47;;;;;;;8.85;3.88;;;17.30;75.70;;;;;;5017539;28;20057;-75
2022/06/27 01:14:14;;;;;;;7.05;4.57;;;17.30;75.80;;;;;;5019247;28;20045;-76
2022/06/27 01:16:40;;;;;;;7.10;4.47;;;17.30;76.10;;;;;;5013957;28;20128;-75
2022/06/27 01:19:16;;;;;;;9.05;4.95;;;17.20;75.90;;;;;;5021914;28;20061;-75
2022/06/27 01:21:51;;;;;;;9.07;5.00;;;17.10;76.20;;;;;;5016706;28;20033;-75
2022/06/27 01:24:17;;;;;;;7.97;4.75;;;17.00;76.50;;;;;;5014201;28;20469;-75
2022/06/27 01:26:43;;;;;;;8.20;4.50;;;17.00;76.80;;;;;;5015152;28;20068;-75
2022/06/27 01:29:10;;;;;;;10.30;5.15;;;17.00;76.90;;;;;;5006669;28;20073;-76
2022/06/27 01:31:37;;;;;;;7.72;3.97;;;17.00;76.90;;;;;;5014024;28;20030;-75
2022/06/27 01:34:03;;;;;;;10.15;4.75;;;17.00;76.90;;;;;;5016442;28;20104;-75
2022/06/27 01:36:44;;;;;;;8.13;4.50;;;17.10;76.90;;;;;;5019216;28;20132;-75
2022/06/27 01:39:12;;;;;;;7.35;4.63;;;17.10;76.90;;;;;;5015269;28;20496;-77
2022/06/27 01:41:40;;;;;;;8.00;4.72;;;17.10;77.00;;;;;;5014371;28;20041;-76
2022/06/27 01:44:08;;;;;;;8.80;4.68;;;17.10;76.90;;;;;;5011683;28;20042;-76
2022/06/27 01:47:00;;;;;;;9.52;4.85;;;17.10;77.00;;;;;;5019787;28;20026;-75
2022/06/27 01:49:28;;;;;;;8.25;4.50;;;17.10;77.00;;;;;;5012822;28;20097;-75
2022/06/27 01:51:55;;;;;;;8.85;4.95;;;17.00;77.10;;;;;;5009436;28;20124;-75
2022/06/27 01:54:22;;;;;;;10.23;5.15;;;17.00;76.90;;;;;;5017411;28;20049;-75
2022/06/27 01:56:52;;;;;;;11.13;5.60;;;16.90;77.40;;;;;;5018359;28;20038;-75
2022/06/27 01:59:21;;;;;;;7.45;4.72;;;16.80;77.60;;;;;;5012095;28;20092;-75
2022/06/27 02:01:47;;;;;;;8.75;5.05;;;16.70;77.90;;;;;;5017103;28;20041;-75
2022/06/27 02:04:14;;;;;;;8.32;5.20;;;16.60;78.20;;;;;;5010512;28;20036;-76
2022/06/27 02:06:42;;;;;;;9.27;5.43;;;16.60;78.50;;;;;;5017623;28;20040;-75
2022/06/27 02:09:09;;;;;;;9.43;5.18;;;16.50;78.80;;;;;;5007385;28;20049;-75
2022/06/27 02:11:36;;;;;;;9.73;5.07;;;16.50;79.00;;;;;;5021178;28;20037;-75
2022/06/27 02:14:01;;;;;;;10.52;5.50;;;16.40;79.10;;;;;;5017202;28;20037;-75
2022/06/27 02:16:27;;;;;;;10.70;5.35;;;16.40;79.10;;;;;;5020065;28;20041;-76
2022/06/27 02:18:53;;;;;;;8.02;4.82;;;16.40;78.90;;;;;;5013092;28;20604;-76
2022/06/27 02:21:21;;;;;;;10.20;4.90;;;16.40;79.00;;;;;;5016965;28;20036;-75
2022/06/27 02:23:48;;;;;;;8.85;4.65;;;16.30;79.00;;;;;;5018208;28;20370;-75
2022/06/27 02:26:15;;;;;;;8.30;4.80;;;16.30;79.30;;;;;;5014302;28;20465;-75
2022/06/27 02:28:42;;;;;;;8.77;4.57;;;16.30;79.30;;;;;;5019024;28;20063;-75
2022/06/27 02:31:08;;;;;;;10.65;4.85;;;16.30;79.40;;;;;;5019219;28;20041;-75
2022/06/27 02:33:38;;;;;;;6.32;4.32;;;16.30;79.50;;;;;;5016975;28;20327;-74
2022/06/27 02:36:05;;;;;;;9.38;5.78;;;16.30;79.50;;;;;;5014257;28;20037;-75
2022/06/27 02:38:32;;;;;;;12.15;5.32;;;16.40;79.40;;;;;;5018024;28;20034;-75
2022/06/27 02:41:04;;;;;;;7.95;4.95;;;16.40;79.60;;;;;;5010592;28;20037;-75
2022/06/27 02:43:32;;;;;;;7.03;4.70;;;16.30;79.60;;;;;;5020059;28;20474;-75
2022/06/27 02:45:58;;;;;;;8.18;4.85;;;16.30;79.70;;;;;;5019664;28;20730;-75
2022/06/27 02:48:26;;;;;;;8.45;4.90;;;16.30;79.80;;;;;;5012707;28;20042;-75
2022/06/27 02:50:56;;;;;;;8.68;5.32;;;16.30;79.80;;;;;;5011300;28;20026;-75
2022/06/27 02:53:29;;;;;;;10.77;5.55;;;16.30;80.00;;;;;;5015615;28;20056;-75
2022/06/27 02:55:58;;;;;;;7.53;4.80;;;16.30;80.00;;;;;;5016286;28;20034;-75
2022/06/27 02:58:40;;;;;;;9.77;5.22;;;16.30;79.90;;;;;;5013744;28;20033;-75
2022/06/27 03:01:08;;;;;;;10.77;5.50;;;16.30;79.90;;;;;;5016538;28;20033;-75
2022/06/27 03:03:35;;;;;;;8.45;5.00;;;16.30;79.90;;;;;;5018088;28;20437;-75
2022/06/27 03:06:04;;;;;;;6.38;4.70;;;16.30;80.00;;;;;;5020558;28;20056;-75
2022/06/27 03:08:46;;;;;;;8.70;5.05;;;16.30;80.10;;;;;;5021624;28;20373;-75
2022/06/27 03:11:14;;;;;;;9.57;5.10;;;16.30;80.10;;;;;;5015014;28;20044;-75
2022/06/27 03:13:40;;;;;;;7.93;5.03;;;16.30;80.10;;;;;;5016578;28;20030;-75
2022/06/27 03:16:06;;;;;;;9.68;5.45;;;16.20;80.20;;;;;;5018899;28;20052;-75
2022/06/27 03:18:32;;;;;;;6.68;4.53;;;16.20;80.40;;;;;;5016206;28;20452;-75
2022/06/27 03:20:58;;;;;;;9.65;5.20;;;16.20;80.50;;;;;;5017825;28;20037;-75
2022/06/27 03:23:23;;;;;;;8.10;5.13;;;16.20;80.60;;;;;;5023137;28;20170;-75
2022/06/27 03:25:49;;;;;;;8.82;5.40;;;16.30;80.50;;;;;;5017828;28;20034;-76
2022/06/27 03:28:15;;;;;;;7.97;4.95;;;16.30;80.30;;;;;;5020830;28;20056;-75
2022/06/27 03:30:41;;;;;;;9.50;5.70;;;16.40;80.20;;;;;;5019604;28;20116;-76
2022/06/27 03:33:07;;;;;;;8.95;5.07;;;16.40;80.20;;;;;;5016025;28;20040;-75
2022/06/27 03:35:32;;;;;;;9.07;5.13;;;16.40;80.20;;;;;;5020470;28;20040;-76
2022/06/27 03:37:58;;;;;;;9.15;5.00;;;16.40;80.00;;;;;;5017242;28;20044;-76
2022/06/27 03:40:24;;;;;;;9.43;5.40;;;16.40;80.00;;;;;;5017479;28;20457;-75
2022/06/27 03:42:50;;;;;;;9.68;5.22;;;16.50;80.10;;;;;;5017724;28;20037;-75
2022/06/27 03:45:15;;;;;;;9.52;5.47;;;16.50;80.10;;;;;;5022490;28;20072;-75
2022/06/27 03:47:50;;;;;;;8.60;5.18;;;16.50;80.10;;;;;;5021523;28;20112;-75
2022/06/27 03:50:16;;;;;;;;;;;16.50;80.00;;;;;;5015443;28;20065;-76
2022/06/27 03:52:42;;;;;;;8.35;4.93;;;16.60;79.80;;;;;;5022126;28;19917;-76
2022/06/27 03:55:08;;;;;;;8.40;5.40;;;16.50;79.80;;;;;;5018500;28;20037;-75
2022/06/27 03:57:39;;;;;;;11.55;5.60;;;16.60;79.90;;;;;;5019762;28;20028;-75
2022/06/27 04:00:08;;;;;;;12.52;6.03;;;16.60;80.20;;;;;;5017302;28;20034;-76
2022/06/27 04:02:35;;;;;;;12.73;5.90;;;16.60;80.20;;;;;;5013902;28;20505;-76
2022/06/27 04:05:01;;;;;;;9.73;5.95;;;16.60;79.90;;;;;;5013531;28;20131;-76
2022/06/27 04:07:27;;;;;;;8.43;5.35;;;16.60;80.00;;;;;;5017064;28;20034;-76
2022/06/27 04:09:52;;;;;;;7.85;5.68;;;16.60;80.10;;;;;;5020226;28;20033;-75
2022/06/27 04:12:18;;;;;;;9.18;5.28;;;16.60;80.20;;;;;;5018107;28;20528;-75
2022/06/27 04:14:44;;;;;;;10.55;5.35;;;16.60;80.20;;;;;;5025218;28;20041;-76
2022/06/27 04:17:09;;;;;;;12.48;5.65;;;16.60;80.10;;;;;;5015074;28;20040;-75
2022/06/27 04:19:35;;;;;;;10.27;5.57;;;16.60;80.10;;;;;;5020198;28;20769;-76
2022/06/27 04:22:01;;;;;;;9.27;5.57;;;16.70;80.10;;;;;;5014454;28;20048;-76
2022/06/27 04:24:26;;;;;;;8.63;5.38;;;16.70;80.10;;;;;;5021530;28;20160;-75
2022/06/27 04:26:52;;;;;;;9.50;5.15;;;16.80;80.10;;;;;;5018403;28;20692;-75
2022/06/27 04:29:18;;;;;;;9.35;5.40;;;16.80;80.00;;;;;;5019264;28;20033;-75
2022/06/27 04:31:44;;;;;;;9.35;5.25;;;16.90;79.80;;;;;;5019405;28;20550;-76
2022/06/27 04:34:12;;;;;;;11.60;5.95;;;17.10;79.60;;;;;;5023722;28;20522;-75
2022/06/27 04:36:39;;;;;;;13.40;5.90;;;17.10;79.00;;;;;;5022630;28;20034;-75
2022/06/27 04:39:06;;;;;;;10.27;5.20;;;17.20;78.70;;;;;;5017894;28;20346;-76
2022/06/27 04:41:32;;;;;;;12.63;5.63;;;17.20;78.70;;;;;;5016182;28;20045;-76
2022/06/27 04:43:58;;;;;;;10.40;5.50;;;17.30;78.50;;;;;;5022876;28;20049;-75
2022/06/27 04:46:23;;;;;;;11.80;5.80;;;17.40;78.20;;;;;;5012663;28;20030;-76
2022/06/27 04:48:49;;;;;;;10.05;4.88;;;17.50;78.00;;;;;;5019253;28;20393;-75
2022/06/27 04:51:15;;;;;;;15.52;6.30;;;17.60;77.80;;;;;;5028110;28;20030;-75
2022/06/27 04:53:41;;;;;;;11.68;5.20;;;17.60;77.60;;;;;;5017839;28;20033;-75
2022/06/27 04:56:08;;;;;;;7.88;4.85;;;17.60;77.30;;;;;;5024543;28;20033;-75
2022/06/27 04:58:35;;;;;;;9.43;5.15;;;17.60;77.30;;;;;;5018480;28;20034;-78
2022/06/27 05:01:01;;;;;;;9.93;4.95;;;17.60;77.20;;;;;;5017188;28;20029;-75
2022/06/27 05:03:27;;;;;;;10.32;5.95;;;17.60;77.30;;;;;;5012599;28;20034;-75
2022/06/27 05:05:52;;;;;;;11.55;5.68;;;17.60;77.40;;;;;;5015474;28;20042;-76
2022/06/27 05:08:20;;;;;;;13.50;5.60;;;17.60;77.50;;;;;;5016769;28;20530;-75
2022/06/27 05:10:46;;;;;;;9.93;5.90;;;17.60;77.60;;;;;;5019637;28;20124;-76
2022/06/27 05:13:12;;;;;;;12.10;5.40;;;17.70;77.50;;;;;;5017451;28;20029;-76
2022/06/27 05:15:38;;;;;;;9.75;5.90;;;17.70;77.50;;;;;;5009495;28;20072;-75
2022/06/27 05:18:04;;;;;;;10.65;4.88;;;17.70;77.30;;;;;;5012704;28;20465;-75
2022/06/27 05:20:30;;;;;;;10.88;5.82;;;18.00;77.80;;;;;;5016700;28;20056;-75
2022/06/27 05:22:57;;;;;;;11.65;5.40;;;18.40;76.00;;;;;;5019710;28;20038;-75
2022/06/27 05:25:23;;;;;;;8.38;5.32;;;18.70;75.50;;;;;;5020714;28;20625;-75
2022/06/27 05:27:49;;;;;;;10.20;5.07;;;18.80;74.40;;;;;;5020135;28;20566;-75
2022/06/27 05:30:15;;;;;;;10.85;5.30;;;18.90;73.70;;;;;;5018093;28;20556;-77
2022/06/27 05:32:41;;;;;;;13.00;5.13;;;18.90;73.90;;;;;;5010502;28;20429;-76
2022/06/27 05:35:08;;;;;;;10.73;5.20;;;18.80;74.10;;;;;;5011385;28;20037;-76
2022/06/27 05:37:38;;;;;;;9.05;5.47;;;18.60;74.50;;;;;;5015482;28;20057;-75
2022/06/27 05:40:06;;;;;;;9.10;5.25;;;18.60;74.80;;;;;;5011761;28;20053;-75
2022/06/27 05:42:34;;;;;;;13.13;5.55;;;18.50;75.30;;;;;;5011378;28;20475;-75
2022/06/27 05:45:01;;;;;;;13.20;5.40;;;18.40;75.90;;;;;;5013893;28;20044;-75
2022/06/27 05:47:28;;;;;;;10.45;5.13;;;18.30;76.20;;;;;;5016964;28;20052;-76
2022/06/27 05:49:54;;;;;;;11.77;5.40;;;18.30;76.50;;;;;;5015053;28;20469;-75
2022/06/27 05:52:22;;;;;;;12.80;6.15;;;18.30;76.40;;;;;;5019167;28;20045;-75
2022/06/27 05:54:47;;;;;;;9.95;5.50;;;18.30;76.50;;;;;;5020883;28;20038;-75
2022/06/27 05:57:15;;;;;;;13.18;6.10;;;18.30;76.40;;;;;;5011028;28;20034;-76
2022/06/27 05:59:41;;;;;;;14.48;6.47;;;18.30;76.20;;;;;;5024274;28;20537;-75
2022/06/27 06:02:08;;;;;;;12.35;6.15;;;18.20;76.50;;;;;;5012353;28;20034;-75
2022/06/27 06:04:35;;;;;;;11.60;7.25;;;18.20;76.70;;;;;;5017377;28;20056;-75
2022/06/27 06:07:00;;;;;;;11.13;6.70;;;18.30;76.60;;;;;;5016060;28;20092;-76
2022/06/27 06:09:27;;;;;;;14.73;7.40;;;18.30;76.40;;;;;;5016245;28;20495;-75
2022/06/27 06:11:53;;;;;;;12.98;6.18;;;18.40;76.50;;;;;;5011578;28;20036;-75
2022/06/27 06:14:21;;;;;;;13.93;6.40;;;18.40;76.40;;;;;;5015481;28;20145;-75
2022/06/27 06:16:48;;;;;;;13.52;7.75;;;18.40;76.60;;;;;;5015738;28;20045;-75
2022/06/27 06:19:14;;;;;;;12.82;6.85;;;18.40;76.20;;;;;;5011926;28;20045;-75
2022/06/27 06:21:40;;;;;;;12.00;7.45;;;18.40;76.30;;;;;;5018128;28;20029;-76
2022/06/27 06:24:06;;;;;;;11.13;7.10;;;18.40;76.40;;;;;;5010789;28;20045;-75
2022/06/27 06:26:32;;;;;;;12.32;6.28;;;18.50;76.60;;;;;;5015885;28;20817;-76
2022/06/27 06:29:05;;;;;;;12.65;6.93;;;18.40;76.50;;;;;;5009127;28;20133;-75
2022/06/27 06:31:31;;;;;;;11.50;6.68;;;18.50;76.70;;;;;;5011060;28;20122;-75
2022/06/27 06:33:57;;;;;;;13.82;6.60;;;18.60;76.50;;;;;;5014835;28;20123;-75
2022/06/27 06:36:23;;;;;;;11.23;6.63;;;18.70;75.60;;;;;;5020020;28;20093;-76
2022/06/27 06:38:51;;;;;;;14.27;6.97;;;18.80;75.40;;;;;;5017541;28;20057;-75
2022/06/27 06:41:17;;;;;;;12.73;6.90;;;19.20;75.20;;;;;;5016175;28;20091;-76
2022/06/27 06:43:46;;;;;;;13.00;6.80;;;19.60;73.50;;;;;;5018999;28;20038;-76
2022/06/27 06:46:12;;;;;;;15.00;7.15;;;20.10;71.40;;;;;;5020579;28;20630;-76
2022/06/27 06:48:40;;;;;;;16.60;7.75;;;20.40;70.70;;;;;;5020928;28;20192;-77
2022/06/27 06:51:07;;;;;;;12.68;6.93;;;20.70;68.90;;;;;;5015613;28;20053;-77
2022/06/27 06:53:35;;;;;;;14.18;7.07;;;20.90;67.90;;;;;;5019248;28;20095;-77
2022/06/27 06:56:01;;;;;;;14.88;6.50;;;21.20;67.40;;;;;;5019628;28;20037;-76
2022/06/27 06:58:27;;;;;;;10.98;6.00;;;21.10;66.00;;;;;;5025259;28;20044;-76
2022/06/27 07:00:54;;;;;;;15.85;6.80;;;20.80;66.10;;;;;;5020827;28;20037;-76
2022/06/27 07:03:20;;;;;;;11.40;6.20;;;20.60;67.10;;;;;;5015592;28;20119;-76
2022/06/27 07:05:46;;;;;;;11.63;7.15;;;20.60;67.60;;;;;;5019145;28;20049;-76
2022/06/27 07:08:12;;;;;;;12.27;6.68;;;20.60;67.70;;;;;;5016824;28;20038;-76
2022/06/27 07:10:39;;;;;;;14.95;7.43;;;20.60;67.80;;;;;;5019427;28;20171;-76
2022/06/27 07:13:05;;;;;;;16.10;7.68;;;20.50;68.20;;;;;;5019070;28;20033;-76
2022/06/27 07:15:33;;;;;;;14.90;7.28;;;20.30;68.10;;;;;;5015210;28;20512;-76
2022/06/27 07:18:00;;;;;;;11.02;6.47;;;20.20;68.80;;;;;;5019231;28;20037;-76
2022/06/27 07:20:26;;;;;;;15.55;7.63;;;20.30;69.10;;;;;;5017644;28;20037;-77
2022/06/27 07:22:52;;;;;;;12.75;6.57;;;20.50;68.40;;;;;;5017155;28;20065;-76
2022/06/27 07:25:19;;;;;;;13.13;6.65;;;20.60;66.50;;;;;;5030188;28;20041;-77
2022/06/27 07:27:46;;;;;;;12.77;6.32;;;20.60;67.60;;;;;;5020600;28;20477;-77
2022/06/27 07:30:13;;;;;;;10.15;6.07;;;20.80;66.90;;;;;;5016560;28;20038;-73
2022/06/27 07:32:41;;;;;;;16.20;6.55;;;20.90;67.00;;;;;;5011479;28;20481;-73
2022/06/27 07:35:11;;;;;;;12.93;6.72;;;21.00;66.20;;;;;;5016875;28;20679;-73
2022/06/27 07:37:40;;;;;;;15.82;7.25;;;21.00;66.40;;;;;;5015918;28;20034;-72
2022/06/27 07:40:07;;;;;;;12.25;7.03;;;20.90;66.90;;;;;;5018867;28;20807;-77
2022/06/27 07:42:34;;;;;;;13.90;7.65;;;20.90;67.50;;;;;;5015091;28;20045;-76
2022/06/27 07:45:01;;;;;;;12.68;6.72;;;20.90;67.10;;;;;;5017092;28;20723;-76
2022/06/27 07:47:27;;;;;;;15.35;6.55;;;20.90;66.90;;;;;;5013859;28;20061;-73
2022/06/27 07:49:53;;;;;;;11.00;5.97;;;21.00;67.60;;;;;;5009757;28;20124;-73
2022/06/27 07:52:19;;;;;;;13.00;6.43;;;21.00;67.20;;;;;;5014343;28;20927;-77
2022/06/27 07:54:44;;;;;;;14.15;6.93;;;21.10;67.30;;;;;;5010875;28;20041;-75
2022/06/27 07:57:10;;;;;;;15.55;6.80;;;21.20;66.00;;;;;;5015716;28;20152;-74
2022/06/27 07:59:38;;;;;;;13.73;6.63;;;21.30;66.70;;;;;;5011828;28;20095;-75
2022/06/27 08:02:04;;;;;;;13.77;6.63;;;21.30;66.30;;;;;;5016157;28;20434;-75
2022/06/27 08:04:30;;;;;;;11.77;5.53;;;21.30;66.10;;;;;;5010227;28;20030;-74
2022/06/27 08:06:56;;;;;;;12.25;5.50;;;21.50;65.30;;;;;;5013210;28;20037;-73
2022/06/27 08:09:22;;;;;;;11.13;5.90;;;21.60;64.20;;;;;;5014233;28;20927;-73
2022/06/27 08:11:48;;;;;;;9.15;5.32;;;21.70;63.90;;;;;;5015186;28;20441;-73
2022/06/27 08:14:19;;;;;;;13.10;6.40;;;21.80;63.90;;;;;;5013986;28;20043;-73
2022/06/27 08:16:51;;;;;;;14.32;7.07;;;21.80;64.10;;;;;;5013743;28;20033;-76
2022/06/27 08:19:18;;;;;;;12.48;6.93;;;21.70;63.80;;;;;;5012955;28;20489;-73
2022/06/27 08:21:44;;;;;;;14.00;6.13;;;21.70;64.10;;;;;;5012361;28;20098;-74
2022/06/27 08:24:15;;;;;;;13.27;6.22;;;21.70;63.80;;;;;;5014198;28;20030;-73
2022/06/27 08:26:40;;;;;;;13.07;5.22;;;21.70;63.90;;;;;;5018937;28;20460;-74
2022/06/27 08:29:06;;;;;;;11.35;5.47;;;21.70;64.40;;;;;;5016781;28;20049;-77
2022/06/27 08:31:34;;;;;;;11.55;5.78;;;21.70;63.70;;;;;;5017537;28;20740;-74
2022/06/27 08:34:04;;;;;;;11.30;5.68;;;21.70;63.40;;;;;;5022736;28;20091;-78
2022/06/27 08:36:35;;;;;;;17.38;6.50;;;21.60;64.10;;;;;;5017530;28;20684;-76
2022/06/27 08:39:07;;;;;;;9.82;5.22;;;21.60;63.70;;;;;;5025209;28;20041;-75
2022/06/27 08:41:34;;;;;;;10.85;5.80;;;21.60;64.70;;;;;;5015061;28;20040;-76
2022/06/27 08:44:04;;;;;;;11.80;5.60;;;21.70;63.50;;;;;;5017711;28;20037;-76
2022/06/27 08:46:30;;;;;;;13.40;6.15;;;21.80;64.20;;;;;;5024069;28;20042;-74
2022/06/27 08:48:57;;;;;;;14.88;6.45;;;22.00;63.30;;;;;;5019656;28;20044;-74
2022/06/27 08:51:23;;;;;;;13.40;6.25;;;22.10;63.20;;;;;;5001802;28;20044;-75
2022/06/27 08:53:53;;;;;;;13.27;5.78;;;22.20;63.90;;;;;;5013067;28;20057;-74
2022/06/27 08:56:20;;;;;;;10.32;6.97;;;22.40;63.80;;;;;;5002318;28;20088;-78
2022/06/27 08:58:47;;;;;;;15.30;6.45;;;22.50;63.10;;;;;;5010543;28;20124;-77
2022/06/27 09:01:19;;;;;;;14.52;5.78;;;22.60;63.20;;;;;;5005803;28;20072;-77
2022/06/27 09:03:58;;;;;;;9.95;4.97;;;22.60;61.40;;;;;;5003632;28;20123;-78
2022/06/27 09:06:26;;;;;;;12.30;5.70;;;22.90;61.90;;;;;;5005784;28;20048;-78
2022/06/27 09:09:03;;;;;;;13.70;6.88;;;22.50;61.50;;;;;;5012235;28;20309;-77
2022/06/27 09:11:31;;;;;;;12.07;8.00;;;22.10;63.20;;;;;;5008053;28;20481;-77
2022/06/27 09:13:57;;;;;;;15.40;7.28;;;22.00;63.30;;;;;;5004763;28;20039;-76
2022/06/27 09:16:23;;;;;;;18.02;7.93;;;22.00;63.20;;;;;;4987409;28;20053;-78
2022/06/27 09:18:50;;;;;;;18.98;8.38;;;21.80;63.60;;;;;;4981255;28;20046;-75
2022/06/27 09:21:16;;;;;;;16.23;9.68;;;21.90;64.00;;;;;;4985990;28;20456;-79
2022/06/27 09:23:53;;;;;;;15.88;11.32;;;22.10;64.30;;;;;;4993233;28;20344;-74
2022/06/27 09:26:25;;;;;;;15.48;11.80;;;21.80;64.40;;;;;;4984773;28;20046;-75
2022/06/27 09:28:58;;;;;;;16.27;12.75;;;21.80;65.40;;;;;;4989313;28;20493;-78
2022/06/27 09:31:32;;;;;;;17.70;13.05;;;21.80;65.40;;;;;;4985147;28;20037;-79
2022/06/27 09:34:19;;;;;;;17.67;11.38;;;21.90;65.10;;;;;;4989586;28;20037;-76
2022/06/27 09:36:49;;;;;;;18.73;11.95;;;21.70;65.00;;;;;;4993958;28;20162;-76
2022/06/27 09:39:29;;;;;;;20.02;11.25;;;21.60;64.40;;;;;;4983317;28;20104;-73
2022/06/27 09:42:05;;;;;;;16.08;11.52;;;21.10;65.80;;;;;;4986858;28;20489;-74
2022/06/27 09:44:45;;;;;;;15.57;10.02;;;21.20;66.70;;;;;;4983648;28;20786;-75
2022/06/27 09:47:24;;;;;;;13.68;9.65;;;21.20;66.20;;;;;;4981716;28;20476;-77
2022/06/27 09:49:56;;;;;;;14.30;8.57;;;20.90;66.60;;;;;;4984864;28;20062;-77
2022/06/27 09:52:24;;;;;;;14.13;8.35;;;20.60;66.80;;;;;;4991980;28;20077;-76
2022/06/27 09:54:53;;;;;;;14.00;7.53;;;20.40;67.40;;;;;;4998967;28;20046;-76
2022/06/27 09:57:19;;;;;;;19.60;7.20;;;20.50;67.90;;;;;;4994587;28;20485;-76
2022/06/27 09:59:47;;;;;;;12.35;5.35;;;20.60;67.60;;;;;;4997609;28;20438;-78
2022/06/27 10:02:16;;;;;;;12.15;5.40;;;20.60;67.10;;;;;;4989781;28;20037;-77
2022/06/27 10:04:46;;;;;;;14.05;5.63;;;20.50;67.00;;;;;;4997810;28;20112;-77
2022/06/27 10:07:13;;;;;;;12.10;5.30;;;20.30;66.80;;;;;;4997509;28;20084;-75
2022/06/27 10:09:41;;;;;;;11.63;4.65;;;20.10;67.50;;;;;;4991888;28;20482;-76
2022/06/27 10:12:26;;;;;;;10.32;4.57;;;20.00;67.70;;;;;;4995785;28;20501;-78
2022/06/27 10:15:10;;;;;;;10.48;4.43;;;19.70;68.30;;;;;;5005357;28;20076;-75
2022/06/27 10:17:38;;;;;;;9.10;4.35;;;19.60;68.30;;;;;;5014922;28;20480;-75
2022/06/27 10:20:12;;;;;;;10.90;4.88;;;19.80;68.80;;;;;;5015261;28;20069;-74
2022/06/27 10:22:39;;;;;;;12.07;4.43;;;19.90;68.30;;;;;;5011350;28;20038;-73
2022/06/27 10:25:38;;;;;;;11.93;3.70;;;19.90;68.10;;;;;;5018849;28;20026;-75
2022/06/27 10:28:12;;;;;;;9.23;3.47;;;20.00;65.30;;;;;;5007756;28;20056;-77
2022/06/27 10:30:48;;;;;;;12.13;3.22;;;19.80;65.30;;;;;;5015913;28;20045;-76
2022/06/27 10:33:23;;;;;;;9.05;2.85;;;19.60;64.50;;;;;;5012248;28;20037;-74
2022/06/27 10:35:57;;;;;;;14.27;3.28;;;19.40;65.90;;;;;;5015312;28;20528;-77
2022/06/27 10:38:27;;;;;;;11.90;3.25;;;19.30;67.90;;;;;;5012132;28;20033;-75
2022/06/27 10:40:55;;;;;;;12.85;3.08;;;19.20;68.90;;;;;;5007205;28;20049;-76
2022/06/27 10:43:35;;;;;;;11.85;3.08;;;19.10;69.00;;;;;;5013687;28;20483;-75
2022/06/27 10:46:10;;;;;;;7.97;2.42;;;18.90;70.00;;;;;;5006955;28;20040;-75
2022/06/27 10:48:53;;;;;;;7.85;2.40;;;18.50;69.60;;;;;;5017010;28;20475;-76
2022/06/27 10:51:27;;;;;;;8.57;2.28;;;18.30;70.00;;;;;;5022872;28;20057;-75
2022/06/27 10:53:59;;;;;;;7.53;1.92;;;18.20;71.90;;;;;;5015032;28;20057;-75
2022/06/27 10:56:48;;;;;;;6.75;1.98;;;18.20;71.80;;;;;;5013131;28;20041;-76
2022/06/27 10:59:14;;;;;;;6.38;2.40;;;17.70;72.00;;;;;;5010001;28;20050;-74
2022/06/27 11:01:49;;;;;;;8.07;2.45;;;17.40;73.50;;;;;;5011806;28;20034;-74
2022/06/27 11:04:29;;;;;;;7.90;2.05;;;17.10;75.00;;;;;;5010816;28;20111;-77
2022/06/27 11:06:57;;;;;;;4.85;1.77;;;16.90;75.90;;;;;;5019677;28;20524;-74
2022/06/27 11:09:36;;;;;;;6.40;2.28;;;16.60;76.00;;;;;;5009497;28;20080;-73
2022/06/27 11:12:02;;;;;;;9.00;2.67;;;16.50;76.50;;;;;;5009473;28;20486;-75
2022/06/27 11:14:28;;;;;;;6.75;2.42;;;16.30;77.20;;;;;;5011370;28;20196;-74
2022/06/27 11:16:53;;;;;;;11.85;3.33;;;16.20;78.70;;;;;;5014876;28;20481;-74
2022/06/27 11:22:20;;;;;;;8.95;2.58;;;16.20;79.80;;;;;;5010184;28;20091;-75
2022/06/27 11:24:47;;;;;;;5.88;2.33;;;16.10;80.00;;;;;;5010825;28;20030;-76
2022/06/27 11:27:14;;;;;;;8.82;2.80;;;16.10;80.20;;;;;;5011952;28;20497;-76
2022/06/27 11:32:33;;;;;;;6.82;2.97;;;16.20;80.40;;;;;;4990545;28;20038;-73
2022/06/27 11:34:59;;;;;;;7.47;2.90;;;16.20;80.30;;;;;;5012669;28;20401;-74
2022/06/27 11:37:29;;;;;;;5.80;2.70;;;16.30;80.40;;;;;;5014692;28;20455;-73
2022/06/27 11:40:00;;;;;;;9.57;2.50;;;16.30;80.70;;;;;;5018263;28;20080;-75
2022/06/27 11:42:31;;;;;;;7.70;2.42;;;16.50;80.80;;;;;;5011947;28;20148;-73
2022/06/27 11:45:05;;;;;;;5.72;2.55;;;16.60;80.20;;;;;;5011809;28;20041;-78
2022/06/27 11:47:34;;;;;;;8.80;2.75;;;16.70;80.10;;;;;;5009200;28;20532;-74
2022/06/27 11:50:05;;;;;;;7.13;2.78;;;16.80;79.60;;;;;;5013150;28;20241;-72
2022/06/27 11:52:52;;;;;;;9.45;2.85;;;17.00;79.50;;;;;;5013353;28;20047;-73
2022/06/27 11:55:20;;;;;;;6.63;2.20;;;17.10;78.90;;;;;;5015856;28;20571;-72
2022/06/27 11:57:51;;;;;;;5.43;2.47;;;17.10;78.70;;;;;;5017115;28;20037;-75
2022/06/27 12:00:20;;;;;;;7.43;2.38;;;17.10;78.50;;;;;;5015077;28;20046;-73
2022/06/27 12:02:51;;;;;;;5.00;2.25;;;17.30;78.60;;;;;;5013081;28;20463;-74
2022/06/27 12:05:20;;;;;;;4.90;2.10;;;17.40;77.50;;;;;;5015474;28;20042;-73
2022/06/27 12:08:02;;;;;;;5.25;2.22;;;17.40;77.00;;;;;;5018056;28;20046;-76
2022/06/27 12:10:36;;;;;;;4.75;2.20;;;17.10;77.00;;;;;;5015804;28;20100;-76
2022/06/27 12:13:04;;;;;;;5.35;2.35;;;17.00;78.20;;;;;;5008891;28;20115;-73
2022/06/27 12:15:31;;;;;;;6.05;2.38;;;17.00;76.70;;;;;;5017383;28;20041;-74
2022/06/27 12:17:57;;;;;;;6.07;2.28;;;16.90;77.60;;;;;;5019078;28;20044;-78
2022/06/27 12:20:24;;;;;;;8.13;2.47;;;17.00;78.70;;;;;;5010485;28;20267;-77
2022/06/27 12:22:50;;;;;;;6.05;2.53;;;17.00;78.30;;;;;;5010563;28;20042;-76
2022/06/27 12:25:17;;;;;;;7.68;2.58;;;17.30;77.90;;;;;;5018105;28;20041;-77
2022/06/27 12:27:43;;;;;;;6.20;2.58;;;17.80;78.40;;;;;;5013218;28;20030;-74
2022/06/27 12:30:12;;;;;;;4.60;2.10;;;18.60;77.70;;;;;;5016394;28;20037;-77
2022/06/27 12:32:38;;;;;;;5.32;2.30;;;19.30;75.60;;;;;;5013744;28;20042;-78
2022/06/27 12:35:04;;;;;;;7.40;2.08;;;19.60;72.90;;;;;;5026218;28;20038;-77
2022/06/27 12:37:30;;;;;;;4.35;1.83;;;19.70;70.50;;;;;;5011646;28;20257;-74
2022/06/27 12:39:55;;;;;;;5.10;1.88;;;19.40;67.90;;;;;;5012576;28;20235;-77
2022/06/27 12:42:21;;;;;;;4.80;1.80;;;19.30;68.30;;;;;;5015809;28;20128;-74
2022/06/27 12:44:47;;;;;;;3.70;1.85;;;19.60;67.40;;;;;;5015408;28;20056;-73
2022/06/27 12:47:12;;;;;;;6.35;1.90;;;19.80;66.30;;;;;;5017834;28;20386;-78
2022/06/27 12:49:38;;;;;;;6.43;1.90;;;20.50;66.30;;;;;;5023003;28;20041;-74
2022/06/27 12:52:04;;;;;;;5.00;1.75;;;21.00;65.40;;;;;;5017713;28;20141;-73